createdAt,value
2023-04-10T00:00:29.179Z,12.73
2023-04-10T00:02:56.389Z,14.15
2023-04-10T00:05:23.196Z,12.65
2023-04-10T00:07:49.862Z,12.00
2023-04-10T00:10:16.871Z,12.73
2023-04-10T00:12:43.682Z,13.18
2023-04-10T00:15:10.684Z,10.68
2023-04-10T00:17:37.450Z,13.05
2023-04-10T00:20:05.052Z,11.88
2023-04-10T00:22:31.671Z,12.07
2023-04-10T00:24:58.277Z,11.07
2023-04-10T00:27:25.017Z,10.30
2023-04-10T00:29:51.585Z,10.52
2023-04-10T00:32:18.454Z,11.18
2023-04-10T00:34:45.340Z,11.80
2023-04-10T00:37:11.985Z,13.02
2023-04-10T00:39:38.598Z,11.93
2023-04-10T00:42:09.281Z,13.57
2023-04-10T00:44:37.675Z,13.23
2023-04-10T00:47:05.974Z,12.07
2023-04-10T00:49:33.291Z,11.55
2023-04-10T00:52:00.302Z,11.95
2023-04-10T00:54:28.432Z,11.15
2023-04-10T00:56:57.258Z,12.07
2023-04-10T00:59:24.028Z,10.40
2023-04-10T01:01:52.040Z,13.02
2023-04-10T01:04:18.981Z,13.80
2023-04-10T01:07:21.517Z,14.63
2023-04-10T01:09:56.733Z,13.52
2023-04-10T01:12:43.768Z,11.60
2023-04-10T01:15:15.663Z,13.23
2023-04-10T01:18:00.800Z,12.20
2023-04-10T01:20:31.560Z,14.55
2023-04-10T01:23:23.475Z,14.23
2023-04-10T01:26:03.447Z,14.88
2023-04-10T01:28:57.040Z,12.80
2023-04-10T01:31:31.204Z,14.43
2023-04-10T01:34:02.482Z,14.80
2023-04-10T01:36:36.988Z,12.63
2023-04-10T01:39:05.323Z,13.70
2023-04-10T01:41:33.982Z,16.23
2023-04-10T01:44:03.884Z,14.48
2023-04-10T01:46:31.756Z,14.30
2023-04-10T01:49:01.257Z,12.73
2023-04-10T01:51:29.540Z,15.43
2023-04-10T01:53:56.928Z,13.35
2023-04-10T01:56:28.596Z,13.52
2023-04-10T01:58:56.476Z,13.60
2023-04-10T02:01:29.917Z,11.65
2023-04-10T02:04:26.408Z,13.30
2023-04-10T02:07:22.074Z,11.40
2023-04-10T02:09:58.052Z,14.10
2023-04-10T02:12:42.111Z,13.43
2023-04-10T02:15:10.001Z,14.43
2023-04-10T02:17:37.330Z,14.38
2023-04-10T02:20:06.620Z,14.60
2023-04-10T02:22:34.151Z,11.82
2023-04-10T02:25:00.852Z,15.82
2023-04-10T02:27:29.448Z,17.85
2023-04-10T02:29:56.745Z,13.80
2023-04-10T02:32:24.084Z,16.67
2023-04-10T02:34:50.743Z,14.27
2023-04-10T02:37:17.451Z,14.88
2023-04-10T02:39:44.068Z,13.73
2023-04-10T02:42:11.913Z,14.60
2023-04-10T02:44:42.009Z,11.15
2023-04-10T02:47:08.954Z,12.00
2023-04-10T02:49:38.334Z,14.13
2023-04-10T02:52:11.663Z,15.27
2023-04-10T02:54:38.233Z,14.13
2023-04-10T02:57:04.836Z,11.20
2023-04-10T02:59:31.664Z,16.30
2023-04-10T03:01:58.502Z,11.05
2023-04-10T03:04:25.531Z,13.77
2023-04-10T03:06:52.318Z,14.00
2023-04-10T03:09:18.890Z,13.55
2023-04-10T03:11:45.836Z,12.82
2023-04-10T03:14:13.114Z,12.40
2023-04-10T03:16:39.686Z,12.07
2023-04-10T03:19:06.466Z,13.63
2023-04-10T03:21:33.094Z,12.82
2023-04-10T03:23:59.856Z,12.95
2023-04-10T03:26:26.689Z,14.32
2023-04-10T03:28:53.728Z,18.25
2023-04-10T03:31:20.512Z,12.90
2023-04-10T03:33:47.140Z,13.65
2023-04-10T03:36:13.753Z,13.27
2023-04-10T03:38:40.549Z,14.45
2023-04-10T03:41:08.710Z,15.05
2023-04-10T03:43:35.475Z,12.80
2023-04-10T03:46:03.683Z,15.23
2023-04-10T03:48:30.701Z,13.32
2023-04-10T03:50:57.564Z,13.48
2023-04-10T03:53:24.761Z,15.88
2023-04-10T03:55:53.263Z,14.65
2023-04-10T03:58:21.714Z,12.35
2023-04-10T04:00:48.607Z,12.45
2023-04-10T04:03:33.222Z,13.18
2023-04-10T04:06:06.198Z,13.32
2023-04-10T04:08:32.777Z,12.45
2023-04-10T04:11:17.964Z,17.60
2023-04-10T04:14:23.925Z,11.75
2023-04-10T04:17:10.558Z,12.52
2023-04-10T04:19:55.328Z,14.18
2023-04-10T04:22:44.812Z,13.55
2023-04-10T04:25:30.017Z,16.38
2023-04-10T04:28:16.053Z,16.02
2023-04-10T04:31:09.135Z,14.30
2023-04-10T04:33:48.409Z,13.73
2023-04-10T04:36:41.005Z,12.30
2023-04-10T04:39:39.902Z,15.68
2023-04-10T04:42:24.409Z,14.50
2023-04-10T04:45:03.295Z,12.48
2023-04-10T04:48:05.035Z,12.75
2023-04-10T04:50:50.285Z,12.98
2023-04-10T04:53:35.286Z,12.30
2023-04-10T04:56:11.287Z,13.98
2023-04-10T04:58:47.659Z,12.40
2023-04-10T05:01:32.064Z,14.95
2023-04-10T05:04:18.612Z,13.32
2023-04-10T05:07:14.454Z,14.50
2023-04-10T05:09:46.916Z,12.63
2023-04-10T05:12:32.319Z,15.80
2023-04-10T05:15:04.041Z,13.10
2023-04-10T05:17:51.164Z,12.52
2023-04-10T05:20:53.341Z,14.40
2023-04-10T05:23:55.456Z,16.05
2023-04-10T05:26:29.601Z,14.52
2023-04-10T05:29:25.421Z,12.85
2023-04-10T05:32:12.412Z,14.85
2023-04-10T05:34:44.118Z,11.20
2023-04-10T05:37:13.675Z,12.88
2023-04-10T05:39:50.564Z,13.68
2023-04-10T05:42:26.012Z,14.88
2023-04-10T05:45:03.401Z,11.73
2023-04-10T05:47:53.846Z,12.45
2023-04-10T05:50:36.964Z,13.40
2023-04-10T05:53:35.985Z,11.57
2023-04-10T05:56:25.692Z,12.82
2023-04-10T05:59:08.168Z,12.73
2023-04-10T06:01:56.773Z,12.30
2023-04-10T06:04:24.162Z,11.48
2023-04-10T06:06:54.294Z,14.30
2023-04-10T06:09:20.891Z,13.55
2023-04-10T06:11:47.410Z,12.75
2023-04-10T06:14:19.517Z,11.38
2023-04-10T06:16:46.715Z,13.38
2023-04-10T06:19:15.602Z,12.13
2023-04-10T06:21:42.191Z,16.20
2023-04-10T06:24:09.633Z,13.57
2023-04-10T06:26:37.493Z,13.60
2023-04-10T06:29:04.461Z,13.18
2023-04-10T06:31:34.073Z,14.30
2023-04-10T06:34:00.885Z,13.70
2023-04-10T06:36:28.706Z,15.02
2023-04-10T06:39:02.656Z,20.55
2023-04-10T06:41:29.413Z,13.45
2023-04-10T06:44:05.503Z,15.02
2023-04-10T06:46:32.075Z,13.63
2023-04-10T06:48:58.628Z,15.05
2023-04-10T06:51:25.160Z,16.70
2023-04-10T06:53:51.692Z,14.85
2023-04-10T06:56:18.251Z,13.25
2023-04-10T06:58:44.837Z,14.68
2023-04-10T07:01:11.438Z,13.95
2023-04-10T07:03:38.291Z,12.35
2023-04-10T07:06:05.115Z,11.38
2023-04-10T07:08:31.670Z,11.80
2023-04-10T07:10:58.883Z,10.07
2023-04-10T07:13:25.859Z,11.82
2023-04-10T07:15:52.562Z,11.88
2023-04-10T07:18:19.197Z,10.27
2023-04-10T07:20:45.745Z,10.38
2023-04-10T07:23:12.291Z,10.98
2023-04-10T07:25:38.802Z,11.68
2023-04-10T07:28:05.315Z,12.88
2023-04-10T07:30:31.875Z,11.55
2023-04-10T07:32:58.563Z,13.80
2023-04-10T07:35:25.468Z,10.88
2023-04-10T07:37:52.775Z,10.75
2023-04-10T07:40:19.317Z,12.35
2023-04-10T07:42:46.567Z,11.00
2023-04-10T07:45:13.202Z,10.60
2023-04-10T07:47:39.879Z,12.80
2023-04-10T07:50:07.688Z,10.38
2023-04-10T07:52:34.258Z,10.95
2023-04-10T07:55:04.399Z,10.27
2023-04-10T07:57:32.175Z,11.65
2023-04-10T07:59:58.815Z,11.00
2023-04-10T08:02:25.992Z,9.93
2023-04-10T08:04:52.786Z,10.88
2023-04-10T08:07:21.604Z,9.68
2023-04-10T08:09:48.391Z,9.98
2023-04-10T08:12:14.967Z,10.32
2023-04-10T08:14:41.528Z,9.98
2023-04-10T08:17:14.424Z,9.63
2023-04-10T08:19:42.086Z,9.57
2023-04-10T08:22:09.043Z,9.85
2023-04-10T08:24:35.644Z,9.00
2023-04-10T08:27:02.232Z,10.40
2023-04-10T08:29:28.744Z,12.50
2023-04-10T08:31:56.396Z,10.27
2023-04-10T08:34:24.316Z,8.60
2023-04-10T08:36:50.902Z,9.18
2023-04-10T08:39:18.253Z,10.45
2023-04-10T08:41:44.881Z,10.07
2023-04-10T08:44:12.050Z,9.68
2023-04-10T08:46:43.647Z,9.02
2023-04-10T08:49:15.454Z,9.80
2023-04-10T08:51:51.865Z,9.70
2023-04-10T08:54:27.565Z,7.57
2023-04-10T08:56:55.956Z,9.30
2023-04-10T08:59:22.927Z,7.82
2023-04-10T09:01:49.683Z,10.32
2023-04-10T09:04:19.353Z,8.48
2023-04-10T09:06:46.097Z,7.90
2023-04-10T09:09:12.752Z,8.98
2023-04-10T09:12:01.391Z,7.28
2023-04-10T09:14:29.709Z,8.25
2023-04-10T09:17:17.566Z,7.75
2023-04-10T09:19:45.859Z,7.15
2023-04-10T09:22:13.014Z,8.65
2023-04-10T09:24:42.142Z,10.30
2023-04-10T09:27:09.977Z,8.05
2023-04-10T09:29:50.241Z,6.53
2023-04-10T09:32:38.661Z,7.60
2023-04-10T09:35:05.938Z,6.82
2023-04-10T09:37:33.629Z,6.55
2023-04-10T09:40:00.771Z,7.40
2023-04-10T09:42:36.971Z,9.15
2023-04-10T09:45:04.770Z,7.75
2023-04-10T09:47:31.757Z,7.80
2023-04-10T09:50:02.772Z,7.47
2023-04-10T09:52:31.755Z,7.45
2023-04-10T09:55:04.530Z,6.95
2023-04-10T09:57:34.031Z,8.13
2023-04-10T10:00:05.082Z,6.63
2023-04-10T10:02:38.994Z,8.85
2023-04-10T10:05:07.462Z,7.88
2023-04-10T10:07:34.710Z,6.72
2023-04-10T10:10:02.971Z,6.47
2023-04-10T10:12:44.602Z,6.22
2023-04-10T10:15:31.366Z,6.57
2023-04-10T10:18:10.377Z,6.03
2023-04-10T10:20:39.948Z,6.97
2023-04-10T10:23:08.237Z,6.28
2023-04-10T10:25:35.677Z,6.28
2023-04-10T10:28:04.154Z,6.93
2023-04-10T10:30:35.037Z,6.03
2023-04-10T10:33:06.547Z,6.85
2023-04-10T10:35:37.538Z,6.50
2023-04-10T10:38:05.394Z,6.80
2023-04-10T10:40:54.865Z,6.43
2023-04-10T10:43:36.130Z,6.88
2023-04-10T10:46:07.208Z,6.43
2023-04-10T10:48:33.799Z,5.75
2023-04-10T10:51:02.080Z,6.88
2023-04-10T10:53:36.134Z,8.07
2023-04-10T10:56:24.089Z,6.13
2023-04-10T10:58:56.137Z,6.40
2023-04-10T11:01:23.417Z,5.25
2023-04-10T11:03:50.807Z,5.13
2023-04-10T11:06:19.923Z,6.28
2023-04-10T11:08:53.153Z,4.95
2023-04-10T11:11:21.708Z,6.72
2023-04-10T11:13:57.017Z,6.07
2023-04-10T11:16:41.957Z,7.90
2023-04-10T11:19:15.580Z,7.47
2023-04-10T11:22:02.597Z,6.72
2023-04-10T11:24:30.267Z,5.93
2023-04-10T11:26:57.467Z,6.45
2023-04-10T11:29:27.118Z,9.68
2023-04-10T11:31:58.391Z,6.25
2023-04-10T11:34:26.980Z,5.28
2023-04-10T11:36:53.928Z,5.88
2023-04-10T11:39:21.487Z,5.85
2023-04-10T11:41:50.395Z,6.30
2023-04-10T11:44:26.417Z,5.00
2023-04-10T11:46:53.717Z,4.55
2023-04-10T11:49:25.108Z,4.05
2023-04-10T11:51:52.378Z,3.95
2023-04-10T11:54:21.898Z,3.83
2023-04-10T11:57:02.932Z,3.70
2023-04-10T11:59:31.346Z,3.38
2023-04-10T12:02:09.659Z,5.30
2023-04-10T12:04:36.866Z,4.75
2023-04-10T12:07:03.809Z,6.35
2023-04-10T12:09:31.749Z,4.53
2023-04-10T12:12:07.076Z,4.28
2023-04-10T12:14:41.695Z,4.93
2023-04-10T12:17:11.306Z,3.67
2023-04-10T12:19:39.144Z,3.72
2023-04-10T12:22:06.601Z,3.97
2023-04-10T12:24:48.016Z,3.85
2023-04-10T12:27:26.459Z,3.47
2023-04-10T12:29:55.954Z,6.72
2023-04-10T12:32:23.471Z,4.93
2023-04-10T12:34:51.720Z,3.60
2023-04-10T12:37:19.031Z,3.60
2023-04-10T12:39:45.724Z,4.10
2023-04-10T12:42:20.526Z,5.32
2023-04-10T12:44:58.734Z,3.35
2023-04-10T12:47:27.943Z,3.40
2023-04-10T12:50:12.151Z,4.25
2023-04-10T12:52:41.276Z,4.35
2023-04-10T12:55:15.400Z,5.68
2023-04-10T12:57:43.947Z,3.03
2023-04-10T13:00:13.165Z,3.33
2023-04-10T13:02:41.297Z,4.22
2023-04-10T13:05:09.107Z,5.57
2023-04-10T13:07:37.659Z,3.55
2023-04-10T13:10:06.144Z,4.78
2023-04-10T13:12:34.977Z,4.68
2023-04-10T13:15:02.741Z,3.45
2023-04-10T13:17:30.479Z,3.40
2023-04-10T13:19:57.158Z,3.92
2023-04-10T13:22:23.853Z,3.95
2023-04-10T13:24:50.522Z,5.28
2023-04-10T13:27:17.081Z,3.97
2023-04-10T13:29:43.836Z,3.70
2023-04-10T13:32:10.719Z,5.00
2023-04-10T13:34:37.545Z,3.47
2023-04-10T13:37:04.366Z,4.05
2023-04-10T13:39:31.999Z,4.95
2023-04-10T13:41:59.424Z,5.25
2023-04-10T13:44:27.067Z,6.75
2023-04-10T13:46:53.816Z,5.57
2023-04-10T13:49:21.937Z,4.28
2023-04-10T13:51:48.771Z,3.33
2023-04-10T13:54:17.298Z,4.07
2023-04-10T13:56:44.905Z,5.85
2023-04-10T13:59:11.831Z,3.45
2023-04-10T14:01:38.440Z,6.95
2023-04-10T14:04:05.281Z,3.75
2023-04-10T14:06:33.865Z,3.72
2023-04-10T14:09:00.560Z,3.15
2023-04-10T14:11:27.249Z,3.97
2023-04-10T14:13:53.885Z,3.85
2023-04-10T14:16:20.598Z,4.95
2023-04-10T14:18:47.303Z,4.15
2023-04-10T14:21:16.599Z,4.85
2023-04-10T14:23:47.380Z,2.83
2023-04-10T14:27:23.040Z,3.03
2023-04-10T14:30:46.040Z,3.45
2023-04-10T14:33:12.915Z,3.20
2023-04-10T14:35:41.557Z,3.15
2023-04-10T14:41:36.059Z,3.45
2023-04-10T14:44:37.045Z,3.08
2023-04-10T14:47:06.347Z,4.80
2023-04-10T14:49:32.960Z,6.30
2023-04-10T14:52:00.571Z,8.48
2023-04-10T14:54:27.225Z,3.35
2023-04-10T14:56:53.843Z,2.90
2023-04-10T14:59:20.706Z,4.90
2023-04-10T15:01:47.549Z,3.88
2023-04-10T15:04:14.403Z,4.05
2023-04-10T15:06:41.131Z,2.92
2023-04-10T15:09:07.861Z,4.47
2023-04-10T15:11:34.534Z,4.63
2023-04-10T15:14:02.233Z,5.75
2023-04-10T15:16:31.953Z,2.80
2023-04-10T15:18:58.604Z,3.53
2023-04-10T15:21:27.240Z,5.05
2023-04-10T15:23:54.097Z,3.53
2023-04-10T15:26:21.335Z,3.55
2023-04-10T15:28:48.197Z,3.78
2023-04-10T15:31:14.963Z,4.35
2023-04-10T15:33:41.766Z,4.50
2023-04-10T15:36:08.743Z,2.85
2023-04-10T15:38:35.723Z,3.63
2023-04-10T15:41:08.936Z,5.65
2023-04-10T15:43:35.905Z,3.88
2023-04-10T15:46:02.518Z,4.20
2023-04-10T15:48:29.237Z,4.10
2023-04-10T15:50:55.943Z,4.75
2023-04-10T15:53:22.563Z,3.63
2023-04-10T15:55:49.099Z,3.90
2023-04-10T15:58:15.733Z,3.05
2023-04-10T16:00:42.277Z,4.22
2023-04-10T16:03:09.064Z,4.47
2023-04-10T16:05:35.784Z,5.15
2023-04-10T16:08:03.292Z,3.58
2023-04-10T16:10:30.605Z,5.05
2023-04-10T16:13:02.808Z,3.92
2023-04-10T16:15:31.376Z,3.17
2023-04-10T16:17:58.365Z,4.43
2023-04-10T16:20:25.638Z,4.55
2023-04-10T16:22:53.502Z,4.22
2023-04-10T16:25:21.715Z,3.30
2023-04-10T16:27:50.601Z,3.15
2023-04-10T16:30:18.096Z,5.28
2023-04-10T16:32:45.115Z,3.00
2023-04-10T16:35:11.710Z,3.08
2023-04-10T16:37:38.438Z,3.55
2023-04-10T16:40:06.785Z,6.55
2023-04-10T16:42:34.645Z,4.15
2023-04-10T16:45:02.169Z,4.20
2023-04-10T16:47:29.006Z,4.32
2023-04-10T16:49:55.975Z,3.83
2023-04-10T16:52:22.585Z,4.53
2023-04-10T16:54:49.175Z,5.55
2023-04-10T16:57:15.727Z,5.28
2023-04-10T16:59:42.522Z,4.85
2023-04-10T17:02:09.080Z,4.93
2023-04-10T17:04:35.782Z,5.32
2023-04-10T17:07:02.391Z,3.60
2023-04-10T17:09:28.978Z,2.90
2023-04-10T17:11:55.890Z,4.70
2023-04-10T17:14:22.410Z,3.42
2023-04-10T17:16:49.012Z,4.20
2023-04-10T17:19:17.382Z,3.95
2023-04-10T17:21:45.585Z,6.25
2023-04-10T17:24:46.102Z,6.60
2023-04-10T17:27:13.439Z,7.03
2023-04-10T17:29:40.837Z,5.32
2023-04-10T17:32:08.832Z,6.25
2023-04-10T17:34:35.666Z,9.02
2023-04-10T17:37:02.450Z,8.55
2023-04-10T17:39:29.081Z,7.13
2023-04-10T17:41:56.744Z,8.02
2023-04-10T17:44:23.514Z,9.05
2023-04-10T17:46:50.356Z,6.63
2023-04-10T17:49:17.096Z,8.05
2023-04-10T17:51:43.745Z,12.48
2023-04-10T17:54:10.604Z,8.55
2023-04-10T17:56:37.305Z,10.35
2023-04-10T17:59:04.110Z,10.85
2023-04-10T18:01:31.113Z,11.43
2023-04-10T18:03:59.133Z,8.07
2023-04-10T18:06:26.372Z,10.63
2023-04-10T18:08:53.280Z,10.63
2023-04-10T18:11:20.208Z,9.07
2023-04-10T18:13:47.221Z,7.78
2023-04-10T18:16:14.035Z,7.90
2023-04-10T18:18:42.361Z,6.85
2023-04-10T18:21:19.184Z,7.88
2023-04-10T18:23:46.035Z,9.93
2023-04-10T18:26:13.206Z,9.68
2023-04-10T18:28:41.926Z,7.97
2023-04-10T18:31:08.502Z,7.18
2023-04-10T18:33:35.184Z,9.55
2023-04-10T18:36:03.510Z,7.25
2023-04-10T18:38:30.354Z,8.95
2023-04-10T18:40:57.792Z,7.38
2023-04-10T18:43:25.602Z,6.97
2023-04-10T18:45:52.262Z,6.30
2023-04-10T18:48:20.247Z,8.13
2023-04-10T18:50:46.974Z,10.55
2023-04-10T18:53:13.530Z,8.32
2023-04-10T18:55:40.125Z,6.43
2023-04-10T18:58:06.738Z,6.78
2023-04-10T19:00:34.118Z,5.93
2023-04-10T19:03:00.926Z,6.32
2023-04-10T19:05:32.335Z,5.68
2023-04-10T19:08:04.322Z,4.88
2023-04-10T19:10:32.480Z,6.20
2023-04-10T19:13:00.041Z,5.53
2023-04-10T19:15:26.658Z,4.68
2023-04-10T19:17:54.403Z,6.35
2023-04-10T19:20:50.840Z,8.43
2023-04-10T19:23:08.180Z,5.10
2023-04-10T19:25:34.770Z,5.20
2023-04-10T19:28:01.423Z,7.13
2023-04-10T19:30:28.724Z,4.80
2023-04-10T19:32:55.792Z,5.28
2023-04-10T19:35:22.669Z,4.50
2023-04-10T19:37:49.908Z,5.65
2023-04-10T19:40:19.211Z,4.93
2023-04-10T19:42:45.933Z,3.58
2023-04-10T19:45:13.026Z,4.28
2023-04-10T19:47:39.704Z,3.80
2023-04-10T19:50:06.972Z,4.05
2023-04-10T19:52:33.706Z,3.65
2023-04-10T19:55:00.549Z,6.68
2023-04-10T19:57:27.275Z,3.70
2023-04-10T19:59:54.042Z,2.88
2023-04-10T20:02:22.649Z,2.92
2023-04-10T20:04:49.648Z,3.53
2023-04-10T20:07:16.372Z,2.72
2023-04-10T20:09:43.027Z,3.78
2023-04-10T20:12:09.722Z,5.38
2023-04-10T20:14:36.392Z,4.53
2023-04-10T20:17:03.078Z,3.17
2023-04-10T20:19:29.785Z,5.20
2023-04-10T20:21:56.610Z,4.43
2023-04-10T20:24:23.193Z,3.97
2023-04-10T20:26:49.774Z,3.55
2023-04-10T20:29:16.313Z,3.03
2023-04-10T20:31:43.057Z,3.67
2023-04-10T20:34:09.738Z,5.03
2023-04-10T20:36:36.469Z,4.10
2023-04-10T20:39:03.154Z,2.58
2023-04-10T20:41:29.718Z,3.10
2023-04-10T20:43:57.406Z,2.95
2023-04-10T20:46:26.966Z,4.30
2023-04-10T20:48:59.099Z,3.45
2023-04-10T20:51:27.214Z,6.38
2023-04-10T20:53:54.995Z,3.88
2023-04-10T20:56:24.906Z,4.85
2023-04-10T20:58:56.722Z,5.82
2023-04-10T21:01:23.575Z,4.90
2023-04-10T21:03:50.525Z,8.10
2023-04-10T21:06:18.115Z,6.40
2023-04-10T21:08:44.736Z,5.63
2023-04-10T21:11:11.389Z,3.25
2023-04-10T21:13:39.109Z,5.88
2023-04-10T21:16:06.462Z,5.22
2023-04-10T21:18:33.130Z,6.55
2023-04-10T21:20:59.796Z,5.53
2023-04-10T21:23:26.440Z,4.47
2023-04-10T21:25:53.081Z,3.35
2023-04-10T21:28:19.971Z,7.40
2023-04-10T21:30:46.841Z,4.75
2023-04-10T21:33:14.150Z,6.63
2023-04-10T21:35:43.645Z,6.50
2023-04-10T21:38:12.211Z,6.78
2023-04-10T21:40:39.992Z,7.22
2023-04-10T21:43:07.605Z,7.60
2023-04-10T21:45:36.176Z,8.63
2023-04-10T21:48:03.077Z,7.60
2023-04-10T21:50:29.729Z,9.20
2023-04-10T21:52:56.600Z,6.70
2023-04-10T21:55:23.152Z,5.65
2023-04-10T21:57:49.827Z,8.00
2023-04-10T22:00:17.060Z,6.70
2023-04-10T22:02:44.323Z,8.80
2023-04-10T22:05:13.139Z,10.95
2023-04-10T22:07:40.254Z,11.63
2023-04-10T22:10:07.669Z,12.73
2023-04-10T22:12:34.185Z,6.82
2023-04-10T22:15:00.775Z,8.75
2023-04-10T22:17:27.437Z,12.82
2023-04-10T22:19:54.217Z,7.55
2023-04-10T22:22:21.234Z,7.72
2023-04-10T22:24:47.901Z,9.65
2023-04-10T22:27:14.445Z,11.18
2023-04-10T22:29:43.497Z,11.38
2023-04-10T22:32:14.159Z,9.00
2023-04-10T22:34:41.007Z,11.07
2023-04-10T22:37:07.654Z,10.43
2023-04-10T22:39:34.313Z,14.70
2023-04-10T22:42:00.880Z,10.15
2023-04-10T22:44:27.491Z,8.63
2023-04-10T22:46:54.081Z,9.27
2023-04-10T22:49:20.704Z,13.93
2023-04-10T22:51:47.359Z,6.47
2023-04-10T22:54:15.847Z,9.10
2023-04-10T22:56:44.021Z,15.43
2023-04-10T22:59:10.837Z,14.43
2023-04-10T23:01:37.464Z,8.65
2023-04-10T23:04:04.138Z,10.43
2023-04-10T23:06:32.433Z,8.60
2023-04-10T23:08:59.105Z,13.70
2023-04-10T23:11:25.813Z,16.58
2023-04-10T23:13:52.410Z,16.15
2023-04-10T23:16:18.952Z,13.65
2023-04-10T23:18:45.598Z,14.18
2023-04-10T23:21:12.122Z,17.00
2023-04-10T23:23:38.663Z,14.80
2023-04-10T23:26:05.671Z,17.50
2023-04-10T23:28:32.221Z,18.42
2023-04-10T23:30:58.865Z,15.68
2023-04-10T23:33:25.625Z,17.33
2023-04-10T23:35:52.172Z,14.15
2023-04-10T23:38:22.303Z,20.63
2023-04-10T23:40:48.940Z,15.93
2023-04-10T23:43:15.583Z,16.27
2023-04-10T23:45:42.238Z,16.90
2023-04-10T23:48:10.015Z,19.17
2023-04-10T23:50:36.618Z,13.38
2023-04-10T23:53:03.333Z,21.85
2023-04-10T23:55:29.884Z,16.27
2023-04-10T23:57:56.376Z,20.52
